Time;durP1;ratioP1;P1;durP2;ratioP2;P2;SDS_P1;SDS_P2;PMS_P1;PMS_P2;Temp;Humidity;BMP_temperature;BMP_pressure;BME280_temperature;BME280_humidity;BME280_pressure;Samples;Min_cycle;Max_cycle;Signal;HPM_P1;HPM_P2
2022/09/24 00:00:28;;;;;;;9.00;6.32;;;;;;;;;;5034995;28;20036;-74
2022/09/24 00:02:54;;;;;;;7.75;6.22;;;;;;;;;;5051138;28;20036;-70
2022/09/24 00:05:20;;;;;;;10.02;5.97;;;;;;;;;;5049784;28;20033;-75
2022/09/24 00:07:46;;;;;;;11.95;7.07;;;;;;;;;;5034941;28;20105;-74
2022/09/24 00:10:12;;;;;;;8.95;6.97;;;;;;;;;;5033280;28;20251;-72
2022/09/24 00:12:38;;;;;;;10.30;6.95;;;;;;;;;;5037344;28;20433;-74
2022/09/24 00:15:04;;;;;;;8.52;6.25;;;;;;;;;;5034693;28;20029;-74
2022/09/24 00:17:31;;;;;;;12.18;7.25;;;;;;;;;;5053141;28;20031;-74
2022/09/24 00:19:57;;;;;;;9.70;6.57;;;;;;;;;;5036584;28;20057;-72
2022/09/24 00:22:23;;;;;;;9.63;5.82;;;;;;;;;;5045868;28;20029;-73
2022/09/24 00:27:33;;;;;;;7.95;6.47;;;;;;;;;;5044223;28;20031;-74
2022/09/24 00:29:59;;;;;;;8.68;6.00;;;;;;;;;;5052487;28;20373;-72
2022/09/24 00:32:25;;;;;;;8.27;5.78;;;;;;;;;;5043180;28;20026;-73
2022/09/24 00:34:52;;;;;;;9.50;6.15;;;;;;;;;;5053318;28;20469;-73
2022/09/24 00:37:18;;;;;;;10.60;6.65;;;;;;;;;;5036128;28;20501;-73
2022/09/24 00:39:44;;;;;;;7.85;5.60;;;;;;;;;;5041933;28;20028;-73
2022/09/24 00:42:11;;;;;;;11.15;5.93;;;;;;;;;;5041069;28;20025;-72
2022/09/24 00:44:43;;;;;;;9.20;6.30;;;;;;;;;;5052152;28;20029;-74
2022/09/24 00:47:29;;;;;;;12.18;6.97;;;;;;;;;;5043744;28;20120;-74
2022/09/24 00:50:16;;;;;;;5.90;5.22;;;;;;;;;;5045247;28;20040;-70
2022/09/24 00:52:44;;;;;;;9.00;5.50;;;;;;;;;;5052549;28;20025;-73
2022/09/24 00:55:11;;;;;;;8.27;6.00;;;;;;;;;;5044035;28;20032;-73
2022/09/24 00:57:38;;;;;;;7.50;5.90;;;;;;;;;;5041381;28;20034;-74
2022/09/24 01:00:06;;;;;;;9.05;7.00;;;;;;;;;;5033068;28;20136;-74
2022/09/24 01:02:34;;;;;;;9.45;7.10;;;;;;;;;;5033830;28;20037;-74
2022/09/24 01:05:00;;;;;;;7.57;5.88;;;;;;;;;;5035746;28;20024;-73
2022/09/24 01:07:26;;;;;;;7.68;6.00;;;;;;;;;;5033481;28;20026;-71
2022/09/24 01:09:52;;;;;;;9.18;6.00;;;;;;;;;;5051239;28;20083;-74
2022/09/24 01:12:32;;;;;;;7.43;5.95;;;;;;;;;;5046250;28;20029;-74
2022/09/24 01:15:04;;;;;;;8.30;6.38;;;;;;;;;;5033157;28;20028;-71
2022/09/24 01:17:56;;;;;;;6.50;5.70;;;;;;;;;;5033110;28;20391;-74
2022/09/24 01:20:28;;;;;;;7.88;5.80;;;;;;;;;;5043316;28;20060;-75
2022/09/24 01:22:54;;;;;;;8.98;6.57;;;;;;;;;;5050229;28;20382;-75
2022/09/24 01:25:35;;;;;;;7.10;6.07;;;;;;;;;;5038792;28;20036;-73
2022/09/24 01:28:19;;;;;;;8.75;6.25;;;;;;;;;;5035386;28;20029;-73
2022/09/24 01:30:48;;;;;;;9.00;6.97;;;;;;;;;;5051992;28;20528;-73
2022/09/24 01:33:17;;;;;;;9.93;6.95;;;;;;;;;;5047376;28;20032;-74
2022/09/24 01:35:46;;;;;;;8.05;6.55;;;;;;;;;;5052448;28;20098;-75
2022/09/24 01:38:21;;;;;;;10.65;6.47;;;;;;;;;;5047084;28;20060;-74
2022/09/24 01:40:47;;;;;;;12.00;6.70;;;;;;;;;;5033203;28;20034;-75
2022/09/24 01:43:15;;;;;;;10.40;7.10;;;;;;;;;;5038665;28;20031;-74
2022/09/24 01:45:41;;;;;;;9.00;7.25;;;;;;;;;;5041251;28;20104;-74
2022/09/24 01:48:08;;;;;;;8.90;6.55;;;;;;;;;;5045792;28;20037;-74
2022/09/24 01:50:39;;;;;;;7.65;6.53;;;;;;;;;;5032815;28;20086;-74
2022/09/24 01:53:10;;;;;;;8.45;7.05;;;;;;;;;;5040701;28;20021;-72
2022/09/24 01:55:38;;;;;;;8.60;6.45;;;;;;;;;;5032502;28;20029;-74
2022/09/24 01:58:09;;;;;;;9.50;7.63;;;;;;;;;;5043871;28;20020;-73
2022/09/24 02:00:38;;;;;;;10.88;8.20;;;;;;;;;;5049762;28;20063;-73
2022/09/24 02:03:10;;;;;;;9.25;8.15;;;;;;;;;;5070503;28;20021;-71
2022/09/24 02:05:48;;;;;;;10.70;7.18;;;;;;;;;;5061561;28;20024;-74
2022/09/24 02:08:18;;;;;;;9.32;6.75;;;;;;;;;;5069178;28;20025;-74
2022/09/24 02:10:49;;;;;;;9.30;7.60;;;;;;;;;;5042408;28;20478;-75
2022/09/24 02:13:16;;;;;;;10.20;7.47;;;;;;;;;;5034306;28;20037;-74
2022/09/24 02:15:45;;;;;;;12.25;8.25;;;;;;;;;;5044098;28;20021;-74
2022/09/24 02:18:13;;;;;;;10.65;7.80;;;;;;;;;;5050866;28;20029;-75
2022/09/24 02:20:41;;;;;;;10.02;7.30;;;;;;;;;;5031451;28;20402;-73
2022/09/24 02:23:07;;;;;;;10.05;7.80;;;;;;;;;;5038141;28;20025;-72
2022/09/24 02:25:54;;;;;;;12.60;8.07;;;;;;;;;;5039078;28;20026;-73
2022/09/24 02:28:21;;;;;;;12.82;7.53;;;;;;;;;;5034844;28;20053;-73
2022/09/24 02:30:53;;;;;;;12.30;7.70;;;;;;;;;;5051520;28;20043;-74
2022/09/24 02:36:05;;;;;;;9.40;8.00;;;;;;;;;;5034340;28;20166;-73
2022/09/24 02:38:32;;;;;;;11.48;8.18;;;;;;;;;;5034204;28;20021;-75
2022/09/24 02:40:58;;;;;;;11.18;8.13;;;;;;;;;;5049446;28;20033;-74
2022/09/24 02:43:24;;;;;;;11.10;7.70;;;;;;;;;;5031443;28;20037;-73
2022/09/24 02:45:50;;;;;;;8.80;7.80;;;;;;;;;;5031542;28;20088;-74
2022/09/24 02:48:17;;;;;;;11.13;7.53;;;;;;;;;;5047229;28;20048;-74
2022/09/24 02:50:42;;;;;;;9.98;7.28;;;;;;;;;;5031730;28;20120;-73
2022/09/24 02:53:08;;;;;;;10.40;7.57;;;;;;;;;;5041731;28;20120;-73
2022/09/24 02:55:34;;;;;;;10.88;8.32;;;;;;;;;;5045081;28;20018;-73
2022/09/24 02:58:00;;;;;;;10.05;7.47;;;;;;;;;;5046130;28;20439;-70
2022/09/24 03:00:27;;;;;;;10.27;7.43;;;;;;;;;;5058186;28;20037;-72
2022/09/24 03:02:53;;;;;;;9.52;7.43;;;;;;;;;;5050209;28;20029;-71
2022/09/24 03:05:20;;;;;;;8.93;7.45;;;;;;;;;;5054984;28;20082;-75
2022/09/24 03:07:46;;;;;;;12.48;7.30;;;;;;;;;;5059158;28;20025;-74
2022/09/24 03:10:12;;;;;;;11.32;7.53;;;;;;;;;;5056450;28;20022;-72
2022/09/24 03:12:41;;;;;;;9.30;7.00;;;;;;;;;;5054921;28;20181;-73
2022/09/24 03:15:07;;;;;;;9.48;7.85;;;;;;;;;;5051532;28;20289;-72
2022/09/24 03:17:33;;;;;;;10.52;8.15;;;;;;;;;;5055833;28;20095;-72
2022/09/24 03:19:59;;;;;;;13.93;7.85;;;;;;;;;;5061035;28;20052;-73
2022/09/24 03:22:24;;;;;;;8.32;7.18;;;;;;;;;;5054109;28;20365;-74
2022/09/24 03:24:50;;;;;;;9.45;7.15;;;;;;;;;;5057806;28;20032;-74
2022/09/24 03:27:16;;;;;;;7.85;6.43;;;;;;;;;;5060484;28;20021;-75
2022/09/24 03:32:28;;;;;;;8.88;7.53;;;;;;;;;;5058061;28;20532;-74
2022/09/24 03:34:54;;;;;;;10.10;7.20;;;;;;;;;;5059338;28;20103;-74
2022/09/24 03:37:20;;;;;;;7.85;6.43;;;;;;;;;;5060545;28;20155;-74
2022/09/24 03:39:46;;;;;;;10.68;8.13;;;;;;;;;;5058229;28;20017;-72
2022/09/24 03:42:12;;;;;;;10.25;8.00;;;;;;;;;;5060374;28;20037;-73
2022/09/24 03:44:38;;;;;;;9.57;6.93;;;;;;;;;;5059033;28;20021;-73
2022/09/24 03:47:04;;;;;;;9.15;6.05;;;;;;;;;;5062437;28;20021;-70
2022/09/24 03:49:29;;;;;;;7.95;6.97;;;;;;;;;;5047962;28;20117;-73
2022/09/24 03:51:56;;;;;;;8.40;7.45;;;;;;;;;;5044487;28;20032;-74
2022/09/24 03:54:22;;;;;;;9.32;6.95;;;;;;;;;;5053649;28;20090;-74
2022/09/24 03:56:48;;;;;;;10.27;6.68;;;;;;;;;;5053143;28;20021;-73
2022/09/24 03:59:14;;;;;;;10.20;8.38;;;;;;;;;;5050500;28;20049;-73
2022/09/24 04:01:40;;;;;;;8.73;7.35;;;;;;;;;;5053916;28;20044;-74
2022/09/24 04:04:06;;;;;;;10.38;6.40;;;;;;;;;;5053197;28;20051;-71
2022/09/24 04:06:32;;;;;;;9.18;7.32;;;;;;;;;;5041233;28;20018;-73
2022/09/24 04:08:59;;;;;;;8.30;6.68;;;;;;;;;;5044842;28;20056;-75
2022/09/24 04:11:25;;;;;;;8.98;7.10;;;;;;;;;;5053379;28;20028;-74
2022/09/24 04:13:51;;;;;;;8.90;7.80;;;;;;;;;;5053861;28;20021;-74
2022/09/24 04:16:17;;;;;;;11.23;7.35;;;;;;;;;;5049364;28;20104;-74
2022/09/24 04:18:44;;;;;;;13.38;7.90;;;;;;;;;;5048739;28;20056;-74
2022/09/24 04:21:10;;;;;;;10.85;7.50;;;;;;;;;;5050150;28;20521;-73
2022/09/24 04:23:36;;;;;;;9.23;7.13;;;;;;;;;;5039119;28;20049;-74
2022/09/24 04:26:02;;;;;;;10.02;7.13;;;;;;;;;;5041551;28;20052;-74
2022/09/24 04:28:29;;;;;;;8.35;6.57;;;;;;;;;;5042467;28;20036;-74
2022/09/24 04:30:55;;;;;;;10.15;7.15;;;;;;;;;;5048719;28;20025;-75
2022/09/24 04:33:20;;;;;;;10.40;7.72;;;;;;;;;;5051820;28;20455;-75
2022/09/24 04:35:46;;;;;;;8.43;6.53;;;;;;;;;;5052205;28;20024;-74
2022/09/24 04:38:13;;;;;;;10.10;6.90;;;;;;;;;;5051537;28;20021;-75
2022/09/24 04:40:39;;;;;;;10.80;6.95;;;;;;;;;;5040560;28;20112;-74
2022/09/24 04:43:05;;;;;;;7.90;6.40;;;;;;;;;;5044811;28;20029;-71
2022/09/24 04:45:31;;;;;;;7.60;6.60;;;;;;;;;;5052578;28;20098;-75
2022/09/24 04:47:57;;;;;;;9.98;6.65;;;;;;;;;;5048564;28;20105;-75
2022/09/24 04:50:24;;;;;;;9.00;6.97;;;;;;;;;;5042645;28;20028;-74
2022/09/24 04:52:50;;;;;;;9.32;7.30;;;;;;;;;;5045757;28;20021;-74
2022/09/24 04:55:17;;;;;;;8.00;6.43;;;;;;;;;;5052521;28;20036;-74
2022/09/24 04:57:44;;;;;;;8.73;6.72;;;;;;;;;;5044079;28;20029;-74
2022/09/24 05:00:13;;;;;;;8.18;6.80;;;;;;;;;;5043764;28;20030;-72
2022/09/24 05:02:40;;;;;;;9.37;7.67;;;;;;;;;;5033507;28;20116;-74
2022/09/24 05:05:06;;;;;;;8.90;7.07;;;;;;;;;;5037695;28;20326;-69
2022/09/24 05:07:32;;;;;;;14.10;8.77;;;;;;;;;;5035370;28;20037;-74
2022/09/24 05:09:58;;;;;;;9.43;7.80;;;;;;;;;;5038413;28;20026;-74
2022/09/24 05:12:24;;;;;;;7.63;6.53;;;;;;;;;;5048027;28;20070;-75
2022/09/24 05:14:50;;;;;;;8.77;7.10;;;;;;;;;;5050266;28;20025;-74
2022/09/24 05:17:16;;;;;;;10.05;6.38;;;;;;;;;;5052344;28;20112;-74
2022/09/24 05:19:42;;;;;;;8.95;7.15;;;;;;;;;;5054009;28;20441;-74
2022/09/24 05:22:08;;;;;;;10.05;6.88;;;;;;;;;;5038291;28;20033;-70
2022/09/24 05:24:34;;;;;;;14.32;8.52;;;;;;;;;;5033801;28;20029;-74
2022/09/24 05:27:09;;;;;;;13.00;8.27;;;;;;;;;;5039521;28;20395;-74
2022/09/24 05:29:36;;;;;;;10.77;7.57;;;;;;;;;;5040096;28;20025;-74
2022/09/24 05:32:04;;;;;;;9.35;7.50;;;;;;;;;;5038418;28;20029;-74
2022/09/24 05:34:30;;;;;;;13.43;8.43;;;;;;;;;;5051844;28;20584;-75
2022/09/24 05:36:56;;;;;;;12.45;8.55;;;;;;;;;;5039829;28;20036;-74
2022/09/24 05:39:22;;;;;;;10.13;8.25;;;;;;;;;;5044180;28;20092;-74
2022/09/24 05:41:48;;;;;;;9.55;7.97;;;;;;;;;;5044959;28;20036;-73
2022/09/24 05:44:14;;;;;;;11.07;7.75;;;;;;;;;;5046382;28;20486;-72
2022/09/24 05:46:40;;;;;;;10.25;7.70;;;;;;;;;;5045339;28;20083;-74
2022/09/24 05:49:06;;;;;;;9.73;7.47;;;;;;;;;;5051770;28;20025;-75
2022/09/24 05:51:32;;;;;;;14.77;9.25;;;;;;;;;;5038847;28;20033;-74
2022/09/24 05:53:58;;;;;;;11.15;7.60;;;;;;;;;;5037680;28;20033;-73
2022/09/24 05:56:24;;;;;;;11.68;8.07;;;;;;;;;;5032939;28;20049;-74
2022/09/24 05:58:50;;;;;;;12.98;8.15;;;;;;;;;;5032991;28;20030;-72
2022/09/24 06:01:16;;;;;;;10.73;7.90;;;;;;;;;;5036362;28;20035;-71
2022/09/24 06:03:42;;;;;;;13.02;7.70;;;;;;;;;;5051943;28;20104;-72
2022/09/24 06:06:08;;;;;;;10.98;8.13;;;;;;;;;;5040218;28;20033;-72
2022/09/24 06:08:34;;;;;;;11.27;8.35;;;;;;;;;;5032012;28;20092;-73
2022/09/24 06:11:01;;;;;;;11.77;8.20;;;;;;;;;;5036519;28;20155;-72
2022/09/24 06:13:28;;;;;;;10.57;6.88;;;;;;;;;;5031097;28;20588;-72
2022/09/24 06:16:00;;;;;;;10.60;7.50;;;;;;;;;;5032462;28;20026;-70
2022/09/24 06:18:26;;;;;;;7.75;6.72;;;;;;;;;;5031413;28;20029;-71
2022/09/24 06:20:52;;;;;;;10.73;7.53;;;;;;;;;;5032666;28;20057;-71
2022/09/24 06:23:18;;;;;;;9.38;7.22;;;;;;;;;;5045715;28;20066;-71
2022/09/24 06:25:48;;;;;;;10.52;7.65;;;;;;;;;;5050349;28;20025;-72
2022/09/24 06:28:14;;;;;;;13.82;8.13;;;;;;;;;;5035756;28;20030;-69
2022/09/24 06:30:40;;;;;;;14.45;8.15;;;;;;;;;;5036147;28;20033;-72
2022/09/24 06:33:08;;;;;;;12.10;8.23;;;;;;;;;;5035217;28;20530;-72
2022/09/24 06:35:38;;;;;;;9.05;7.30;;;;;;;;;;5043770;28;20098;-73
2022/09/24 06:38:04;;;;;;;9.13;7.18;;;;;;;;;;5061997;28;20074;-72
2022/09/24 06:40:31;;;;;;;10.13;6.70;;;;;;;;;;5055864;28;20514;-72
2022/09/24 06:42:57;;;;;;;11.13;7.97;;;;;;;;;;5058560;28;20033;-71
2022/09/24 06:45:24;;;;;;;8.52;7.35;;;;;;;;;;5055285;28;20028;-73
2022/09/24 06:47:54;;;;;;;12.80;8.10;;;;;;;;;;5054727;28;20025;-73
2022/09/24 06:50:20;;;;;;;10.48;7.75;;;;;;;;;;5057922;28;20100;-73
2022/09/24 06:52:46;;;;;;;12.63;8.10;;;;;;;;;;5054662;28;20469;-71
2022/09/24 06:55:14;;;;;;;11.52;9.20;;;;;;;;;;5059393;28;20025;-69
2022/09/24 06:57:40;;;;;;;15.98;9.55;;;;;;;;;;5055415;28;20068;-75
2022/09/24 07:00:07;;;;;;;11.80;8.93;;;;;;;;;;5058569;28;20477;-73
2022/09/24 07:02:33;;;;;;;12.80;9.48;;;;;;;;;;5054009;28;20036;-74
2022/09/24 07:04:59;;;;;;;13.68;9.27;;;;;;;;;;5045759;28;20034;-74
2022/09/24 07:07:32;;;;;;;11.40;9.43;;;;;;;;;;5060248;28;20032;-75
2022/09/24 07:10:00;;;;;;;13.57;9.48;;;;;;;;;;5057803;28;20025;-74
2022/09/24 07:12:26;;;;;;;13.65;8.88;;;;;;;;;;5036080;28;20032;-73
2022/09/24 07:14:52;;;;;;;11.82;8.35;;;;;;;;;;5038336;28;20048;-73
2022/09/24 07:17:18;;;;;;;11.95;8.88;;;;;;;;;;5042495;28;20478;-73
2022/09/24 07:19:44;;;;;;;11.68;8.65;;;;;;;;;;5041545;28;20091;-74
2022/09/24 07:22:40;;;;;;;9.07;8.18;;;;;;;;;;5039239;28;20068;-73
2022/09/24 07:25:10;;;;;;;11.88;8.88;;;;;;;;;;5033097;28;20052;-73
2022/09/24 07:27:36;;;;;;;15.15;8.48;;;;;;;;;;5053235;28;20043;-71
2022/09/24 07:30:04;;;;;;;12.90;8.35;;;;;;;;;;5040256;28;20033;-69
2022/09/24 07:32:30;;;;;;;19.15;10.20;;;;;;;;;;5032512;28;20037;-73
2022/09/24 07:34:56;;;;;;;13.95;10.23;;;;;;;;;;5031420;28;20158;-73
2022/09/24 07:37:22;;;;;;;12.98;9.30;;;;;;;;;;5032344;28;20033;-73
2022/09/24 07:39:48;;;;;;;11.90;9.00;;;;;;;;;;5048786;28;20017;-74
2022/09/24 07:42:14;;;;;;;11.80;9.50;;;;;;;;;;5041408;28;20128;-78
2022/09/24 07:44:40;;;;;;;12.07;9.68;;;;;;;;;;5038798;28;20037;-79
2022/09/24 07:47:06;;;;;;;13.18;9.73;;;;;;;;;;5045389;28;20025;-74
2022/09/24 07:49:32;;;;;;;13.02;9.65;;;;;;;;;;5044930;28;20493;-81
2022/09/24 07:52:04;;;;;;;12.40;9.65;;;;;;;;;;5035821;28;20109;-85
2022/09/24 07:54:35;;;;;;;12.82;9.23;;;;;;;;;;5044890;28;20021;-75
2022/09/24 07:57:01;;;;;;;11.23;9.00;;;;;;;;;;5046591;28;20485;-82
2022/09/24 07:59:29;;;;;;;11.38;9.13;;;;;;;;;;5042598;28;20469;-76
2022/09/24 08:01:56;;;;;;;14.27;9.98;;;;;;;;;;5043739;28;20113;-75
2022/09/24 08:04:22;;;;;;;12.98;9.15;;;;;;;;;;5031781;28;20050;-73
2022/09/24 08:06:48;;;;;;;13.23;9.20;;;;;;;;;;5033984;28;20439;-75
2022/09/24 08:09:15;;;;;;;12.75;9.48;;;;;;;;;;5041613;28;20028;-78
2022/09/24 08:11:41;;;;;;;12.32;9.05;;;;;;;;;;5050963;28;20029;-73
2022/09/24 08:14:07;;;;;;;13.60;9.55;;;;;;;;;;5054012;28;20099;-80
2022/09/24 08:16:33;;;;;;;13.52;9.98;;;;;;;;;;5052026;28;20462;-76
2022/09/24 08:18:59;;;;;;;12.50;8.82;;;;;;;;;;5042580;28;20053;-80
2022/09/24 08:21:27;;;;;;;13.85;9.57;;;;;;;;;;5035049;28;20111;-81
2022/09/24 08:23:54;;;;;;;10.38;8.23;;;;;;;;;;5049204;28;20013;-72
2022/09/24 08:26:20;;;;;;;12.10;8.95;;;;;;;;;;5045620;28;20120;-72
2022/09/24 08:28:50;;;;;;;13.55;9.85;;;;;;;;;;5045378;28;20115;-71
2022/09/24 08:31:16;;;;;;;15.60;9.63;;;;;;;;;;5046616;28;20045;-72
2022/09/24 08:33:45;;;;;;;11.93;8.55;;;;;;;;;;5041993;28;20116;-71
2022/09/24 08:36:11;;;;;;;25.80;12.85;;;;;;;;;;5034542;28;20025;-71
2022/09/24 08:38:37;;;;;;;13.73;10.32;;;;;;;;;;5037582;28;20092;-70
2022/09/24 08:41:13;;;;;;;14.80;9.20;;;;;;;;;;5063789;28;20481;-72
2022/09/24 08:43:54;;;;;;;10.18;8.13;;;;;;;;;;5058318;28;20159;-71
2022/09/24 08:49:12;;;;;;;13.18;8.45;;;;;;;;;;5056588;28;20082;-75
2022/09/24 08:51:57;;;;;;;10.80;7.97;;;;;;;;;;5050134;28;20033;-73
2022/09/24 08:54:26;;;;;;;13.05;8.40;;;;;;;;;;5033220;28;20061;-74
2022/09/24 08:56:54;;;;;;;12.27;9.33;;;;;;;;;;5034287;28;20378;-75
2022/09/24 08:59:36;;;;;;;11.23;7.75;;;;;;;;;;5041389;28;20306;-69
2022/09/24 09:02:18;;;;;;;9.20;8.20;;;;;;;;;;5046547;28;20095;-74
2022/09/24 09:04:56;;;;;;;8.55;7.57;;;;;;;;;;5047945;28;20029;-71
2022/09/24 09:07:32;;;;;;;11.77;7.18;;;;;;;;;;5032558;28;20041;-70
2022/09/24 09:10:02;;;;;;;11.55;9.07;;;;;;;;;;5032591;28;20026;-70
2022/09/24 09:12:45;;;;;;;14.48;10.23;;;;;;;;;;5047200;28;20608;-70
2022/09/24 09:15:17;;;;;;;12.00;8.75;;;;;;;;;;5040609;28;20478;-73
2022/09/24 09:17:46;;;;;;;9.80;8.27;;;;;;;;;;5031553;28;20030;-71
2022/09/24 09:20:32;;;;;;;10.35;8.50;;;;;;;;;;5032846;28;20076;-69
2022/09/24 09:23:03;;;;;;;10.80;8.15;;;;;;;;;;5031223;28;20037;-71
2022/09/24 09:25:31;;;;;;;12.18;8.00;;;;;;;;;;5031838;28;20033;-70
2022/09/24 09:28:14;;;;;;;11.38;5.40;;;;;;;;;;5039382;28;20018;-74
2022/09/24 09:30:51;;;;;;;3.70;2.53;;;;;;;;;;5037235;28;20036;-73
2022/09/24 09:33:29;;;;;;;2.70;2.03;;;;;;;;;;5040047;28;20028;-71
2022/09/24 09:36:15;;;;;;;4.05;2.80;;;;;;;;;;5040097;28;20526;-72
2022/09/24 09:38:41;;;;;;;3.78;2.63;;;;;;;;;;5049113;28;20679;-75
2022/09/24 09:41:26;;;;;;;2.67;2.08;;;;;;;;;;5042158;28;20116;-77
2022/09/24 09:44:00;;;;;;;2.58;2.30;;;;;;;;;;5052053;28;20060;-76
2022/09/24 09:46:29;;;;;;;4.63;3.13;;;;;;;;;;5050586;28;20025;-75
2022/09/24 09:49:01;;;;;;;3.25;2.70;;;;;;;;;;5043462;28;20473;-79
2022/09/24 09:51:30;;;;;;;2.90;2.70;;;;;;;;;;5032750;28;20043;-78
2022/09/24 09:54:00;;;;;;;2.25;1.95;;;;;;;;;;5032603;28;20100;-77
2022/09/24 09:56:33;;;;;;;3.63;2.70;;;;;;;;;;5037120;28;20025;-72
2022/09/24 09:59:07;;;;;;;2.35;2.15;;;;;;;;;;5047265;28;20148;-70
2022/09/24 10:01:34;;;;;;;5.82;3.15;;;;;;;;;;5049596;28;20551;-71
2022/09/24 10:04:03;;;;;;;4.70;2.70;;;;;;;;;;5034690;28;20052;-69
2022/09/24 10:06:31;;;;;;;3.95;2.88;;;;;;;;;;5032486;28;20017;-70
2022/09/24 10:09:26;;;;;;;3.33;2.47;;;;;;;;;;5033639;28;20037;-70
2022/09/24 10:11:52;;;;;;;3.03;2.53;;;;;;;;;;5024790;28;20041;-69
2022/09/24 10:14:19;;;;;;;3.95;2.53;;;;;;;;;;5031697;28;20033;-69
2022/09/24 10:16:54;;;;;;;3.33;2.67;;;;;;;;;;5031113;28;20033;-69
2022/09/24 10:19:24;;;;;;;3.78;2.58;;;;;;;;;;5037670;28;20057;-70
2022/09/24 10:21:50;;;;;;;;;;;;;;;;;;5031607;28;20037;-69
2022/09/24 10:24:20;;;;;;;2.70;2.47;;;;;;;;;;5042668;28;19980;-69
2022/09/24 10:26:47;;;;;;;2.50;2.28;;;;;;;;;;5037702;28;20099;-70
2022/09/24 10:32:01;;;;;;;3.63;2.67;;;;;;;;;;5047962;28;20074;-70
2022/09/24 10:34:27;;;;;;;2.75;2.55;;;;;;;;;;5050088;28;20052;-71
2022/09/24 10:37:04;;;;;;;2.88;2.50;;;;;;;;;;5050307;28;20025;-69
2022/09/24 10:39:30;;;;;;;3.78;2.63;;;;;;;;;;5041561;28;20021;-68
2022/09/24 10:41:57;;;;;;;4.20;2.38;;;;;;;;;;5037660;28;20021;-69
2022/09/24 10:44:24;;;;;;;3.03;2.20;;;;;;;;;;5044260;28;20033;-69
2022/09/24 10:47:08;;;;;;;6.50;3.13;;;;;;;;;;5033879;28;20466;-70
2022/09/24 10:49:46;;;;;;;4.53;2.40;;;;;;;;;;5046235;28;20029;-69
2022/09/24 10:52:37;;;;;;;4.05;2.30;;;;;;;;;;5047603;28;20060;-70
2022/09/24 10:55:12;;;;;;;2.85;2.42;;;;;;;;;;5044358;28;20029;-69
2022/09/24 10:57:58;;;;;;;2.40;2.20;;;;;;;;;;5048754;28;20082;-68
2022/09/24 11:00:27;;;;;;;2.20;2.00;;;;;;;;;;5051895;28;20033;-69
2022/09/24 11:02:53;;;;;;;2.65;1.90;;;;;;;;;;5054254;28;20017;-69
2022/09/24 11:05:21;;;;;;;2.33;1.80;;;;;;;;;;5050344;28;20474;-68
2022/09/24 11:07:51;;;;;;;2.83;2.03;;;;;;;;;;5038546;28;20104;-67
2022/09/24 11:10:40;;;;;;;2.50;2.30;;;;;;;;;;5040465;28;20021;-69
2022/09/24 11:13:41;;;;;;;2.70;2.50;;;;;;;;;;5043417;28;20017;-67
2022/09/24 11:16:14;;;;;;;5.43;2.92;;;;;;;;;;5032855;28;20116;-67
2022/09/24 11:18:40;;;;;;;5.50;2.63;;;;;;;;;;5046126;28;20021;-68
2022/09/24 11:21:09;;;;;;;3.17;2.60;;;;;;;;;;5055466;28;20425;-68
2022/09/24 11:23:58;;;;;;;2.85;2.42;;;;;;;;;;5051650;28;20440;-68
2022/09/24 11:26:43;;;;;;;2.33;1.90;;;;;;;;;;5037807;28;20121;-68
2022/09/24 11:29:12;;;;;;;2.65;2.45;;;;;;;;;;5046903;28;20067;-71
2022/09/24 11:31:46;;;;;;;4.03;2.90;;;;;;;;;;5040664;28;20025;-69
2022/09/24 11:34:29;;;;;;;2.58;2.38;;;;;;;;;;5048830;28;20159;-66
2022/09/24 11:36:55;;;;;;;3.50;2.20;;;;;;;;;;5048676;28;20025;-68
2022/09/24 11:39:21;;;;;;;2.78;1.90;;;;;;;;;;5038529;28;20825;-68
2022/09/24 11:41:49;;;;;;;4.03;2.25;;;;;;;;;;5042819;28;20416;-68
2022/09/24 11:44:33;;;;;;;3.15;2.10;;;;;;;;;;5047044;28;20449;-68
2022/09/24 11:47:08;;;;;;;3.53;2.25;;;;;;;;;;5038297;28;20126;-68
2022/09/24 11:49:52;;;;;;;3.00;2.20;;;;;;;;;;5037435;28;20496;-68
2022/09/24 11:52:21;;;;;;;2.38;2.03;;;;;;;;;;5049891;28;20048;-68
2022/09/24 11:55:06;;;;;;;3.58;2.15;;;;;;;;;;5051474;28;20482;-69
2022/09/24 11:57:39;;;;;;;3.80;2.55;;;;;;;;;;5044863;28;20108;-68
2022/09/24 12:00:08;;;;;;;2.65;2.45;;;;;;;;;;5034881;28;20140;-68
2022/09/24 12:02:40;;;;;;;4.40;2.30;;;;;;;;;;5045158;28;20399;-65
2022/09/24 12:05:08;;;;;;;3.17;2.70;;;;;;;;;;5045011;28;20029;-68
2022/09/24 12:07:43;;;;;;;2.53;2.20;;;;;;;;;;5045049;28;20025;-68
2022/09/24 12:10:15;;;;;;;3.33;3.00;;;;;;;;;;5056029;28;20410;-68
2022/09/24 12:12:42;;;;;;;2.95;2.60;;;;;;;;;;5050666;28;20074;-68
2022/09/24 12:15:18;;;;;;;4.93;2.72;;;;;;;;;;5050671;28;20036;-68
2022/09/24 12:17:50;;;;;;;3.75;3.03;;;;;;;;;;5043574;28;20556;-67
2022/09/24 12:20:18;;;;;;;4.35;2.90;;;;;;;;;;5037931;28;20055;-68
2022/09/24 12:22:45;;;;;;;5.13;2.97;;;;;;;;;;5049345;28;20652;-68
2022/09/24 12:25:12;;;;;;;5.20;3.22;;;;;;;;;;5049701;28;20339;-68
2022/09/24 12:27:38;;;;;;;3.60;2.85;;;;;;;;;;5051106;28;20602;-68
2022/09/24 12:32:54;;;;;;;3.15;2.85;;;;;;;;;;5053481;28;20036;-68
2022/09/24 12:35:26;;;;;;;6.68;3.63;;;;;;;;;;5052994;28;20029;-67
2022/09/24 12:37:57;;;;;;;4.13;3.60;;;;;;;;;;5042371;28;20060;-65
2022/09/24 12:40:42;;;;;;;5.45;3.33;;;;;;;;;;5035780;28;20052;-68
2022/09/24 12:43:26;;;;;;;4.18;3.60;;;;;;;;;;5043738;28;20029;-70
2022/09/24 12:46:02;;;;;;;5.47;3.85;;;;;;;;;;5034092;28;20041;-69
2022/09/24 12:48:30;;;;;;;3.83;3.42;;;;;;;;;;5051482;28;20041;-70
2022/09/24 12:51:00;;;;;;;5.30;3.42;;;;;;;;;;5054449;28;20029;-69
2022/09/24 12:53:32;;;;;;;7.13;4.18;;;;;;;;;;5038370;28;20028;-69
2022/09/24 12:55:59;;;;;;;7.97;4.88;;;;;;;;;;5047727;28;20021;-69
2022/09/24 12:58:28;;;;;;;6.03;5.20;;;;;;;;;;5035986;28;20056;-70
2022/09/24 13:01:06;;;;;;;8.25;5.15;;;;;;;;;;5032618;28;20061;-70
2022/09/24 13:03:33;;;;;;;7.13;5.25;;;;;;;;;;5031759;28;20033;-68
2022/09/24 13:06:00;;;;;;;7.53;4.97;;;;;;;;;;5046550;28;20301;-68
2022/09/24 13:08:34;;;;;;;7.25;4.80;;;;;;;;;;5046475;28;20032;-67
2022/09/24 13:11:04;;;;;;;7.60;4.70;;;;;;;;;;5033002;28;20029;-68
2022/09/24 13:13:31;;;;;;;7.28;5.07;;;;;;;;;;5030267;28;20048;-67
2022/09/24 13:16:17;;;;;;;6.38;4.38;;;;;;;;;;5033200;28;20056;-67
2022/09/24 13:18:51;;;;;;;6.55;4.72;;;;;;;;;;5044177;28;20025;-68
2022/09/24 13:21:18;;;;;;;5.15;4.43;;;;;;;;;;5051349;28;20073;-70
2022/09/24 13:23:46;;;;;;;8.23;5.55;;;;;;;;;;5048103;28;20565;-68
2022/09/24 13:26:14;;;;;;;7.30;4.75;;;;;;;;;;5051436;28;20021;-70
2022/09/24 13:28:57;;;;;;;8.05;5.07;;;;;;;;;;5036739;28;20053;-69
2022/09/24 13:31:29;;;;;;;6.70;5.28;;;;;;;;;;5049994;28;20033;-67
2022/09/24 13:34:01;;;;;;;5.53;4.50;;;;;;;;;;5049018;28;20386;-69
2022/09/24 13:36:37;;;;;;;7.15;5.95;;;;;;;;;;5048775;28;20041;-67
2022/09/24 13:39:21;;;;;;;6.18;5.57;;;;;;;;;;5043120;28;20131;-67
2022/09/24 13:41:57;;;;;;;6.95;5.28;;;;;;;;;;5035350;28;20053;-68
2022/09/24 13:44:27;;;;;;;11.00;6.13;;;;;;;;;;5046287;28;20474;-69
2022/09/24 13:46:58;;;;;;;10.48;5.68;;;;;;;;;;5040962;28;20083;-69
2022/09/24 13:49:25;;;;;;;11.30;6.30;;;;;;;;;;5039902;28;20033;-69
2022/09/24 13:51:57;;;;;;;7.82;6.25;;;;;;;;;;5031452;28;20029;-69
2022/09/24 13:54:31;;;;;;;7.85;6.07;;;;;;;;;;5033605;28;20025;-69
2022/09/24 13:57:11;;;;;;;10.13;5.95;;;;;;;;;;5035811;28;20025;-69
2022/09/24 13:59:37;;;;;;;9.27;6.32;;;;;;;;;;5038530;28;20425;-69
2022/09/24 14:02:03;;;;;;;8.02;6.40;;;;;;;;;;5033488;28;20033;-69
2022/09/24 14:04:29;;;;;;;14.43;8.20;;;;;;;;;;5036907;28;20021;-69
2022/09/24 14:06:56;;;;;;;8.77;6.85;;;;;;;;;;5039754;28;20022;-69
2022/09/24 14:09:22;;;;;;;9.18;7.60;;;;;;;;;;5036786;28;20482;-69
2022/09/24 14:11:53;;;;;;;12.07;8.00;;;;;;;;;;5031462;28;20094;-69
2022/09/24 14:14:20;;;;;;;8.93;7.05;;;;;;;;;;5043377;28;20021;-69
2022/09/24 14:16:46;;;;;;;9.30;6.22;;;;;;;;;;5050423;28;20370;-68
2022/09/24 14:19:13;;;;;;;8.15;7.00;;;;;;;;;;5043444;28;20085;-69
2022/09/24 14:21:41;;;;;;;8.27;6.57;;;;;;;;;;5046745;28;20053;-69
2022/09/24 14:24:13;;;;;;;9.13;6.85;;;;;;;;;;5048870;28;20037;-69
2022/09/24 14:26:51;;;;;;;7.20;5.93;;;;;;;;;;5049423;28;20044;-69
2022/09/24 14:29:19;;;;;;;6.65;6.05;;;;;;;;;;5038339;28;20083;-69
2022/09/24 14:31:47;;;;;;;8.88;6.68;;;;;;;;;;5042109;28;20057;-69
2022/09/24 14:34:21;;;;;;;7.38;6.38;;;;;;;;;;5047913;28;20025;-69
2022/09/24 14:36:47;;;;;;;7.35;5.53;;;;;;;;;;5033860;28;20052;-69
2022/09/24 14:39:13;;;;;;;6.22;5.32;;;;;;;;;;5050002;28;20017;-69
2022/09/24 14:41:39;;;;;;;6.63;4.70;;;;;;;;;;5037711;28;20119;-69
2022/09/24 14:44:07;;;;;;;5.50;4.68;;;;;;;;;;5048590;28;20522;-70
2022/09/24 14:46:47;;;;;;;5.55;4.78;;;;;;;;;;5048956;28;20104;-69
2022/09/24 14:49:16;;;;;;;5.07;4.55;;;;;;;;;;5044787;28;20491;-70
2022/09/24 14:51:50;;;;;;;5.57;4.53;;;;;;;;;;5030432;28;20037;-69
2022/09/24 14:54:24;;;;;;;6.50;4.35;;;;;;;;;;5039360;28;20021;-70
2022/09/24 14:56:51;;;;;;;5.18;4.55;;;;;;;;;;5038457;28;20056;-70
2022/09/24 14:59:27;;;;;;;6.80;4.75;;;;;;;;;;5043024;28;20079;-69
2022/09/24 15:02:22;;;;;;;7.40;5.90;;;;;;;;;;5039512;28;20339;-70
2022/09/24 15:04:50;;;;;;;6.38;5.45;;;;;;;;;;5022805;28;20136;-68
2022/09/24 15:07:17;;;;;;;6.72;6.05;;;;;;;;;;5051887;28;20086;-69
2022/09/24 15:09:48;;;;;;;7.38;5.78;;;;;;;;;;5043612;28;20053;-68